sensor_id;sensor_type;location;lat;lon;timestamp;P1;durP1;ratioP1;P2;durP2;ratioP2
53927;SDS011;39837;47.630;18.822;2023-05-10T00:02:38;2.40;;;2.22;;
53927;SDS011;39837;47.630;18.822;2023-05-10T00:05:23;2.25;;;2.15;;
53927;SDS011;39837;47.630;18.822;2023-05-10T00:08:06;2.40;;;2.30;;
53927;SDS011;39837;47.630;18.822;2023-05-10T00:10:53;2.20;;;2.10;;
53927;SDS011;39837;47.630;18.822;2023-05-10T00:13:36;4.68;;;2.33;;
53927;SDS011;39837;47.630;18.822;2023-05-10T00:16:21;2.70;;;2.50;;
53927;SDS011;39837;47.630;18.822;2023-05-10T00:19:05;2.15;;;2.05;;
53927;SDS011;39837;47.630;18.822;2023-05-10T00:21:49;1.73;;;1.63;;
53927;SDS011;39837;47.630;18.822;2023-05-10T00:24:33;3.20;;;2.75;;
53927;SDS011;39837;47.630;18.822;2023-05-10T00:27:16;2.85;;;2.65;;
53927;SDS011;39837;47.630;18.822;2023-05-10T00:30:00;2.33;;;2.13;;
53927;SDS011;39837;47.630;18.822;2023-05-10T00:32:44;4.47;;;2.78;;
53927;SDS011;39837;47.630;18.822;2023-05-10T00:35:28;1.88;;;1.77;;
53927;SDS011;39837;47.630;18.822;2023-05-10T00:38:12;2.00;;;1.90;;
53927;SDS011;39837;47.630;18.822;2023-05-10T00:40:56;3.85;;;2.70;;
53927;SDS011;39837;47.630;18.822;2023-05-10T00:43:40;2.45;;;2.25;;
53927;SDS011;39837;47.630;18.822;2023-05-10T00:46:24;2.85;;;2.65;;
53927;SDS011;39837;47.630;18.822;2023-05-10T00:49:09;2.30;;;2.20;;
53927;SDS011;39837;47.630;18.822;2023-05-10T00:51:54;2.38;;;2.17;;
53927;SDS011;39837;47.630;18.822;2023-05-10T00:54:38;3.55;;;2.75;;
53927;SDS011;39837;47.630;18.822;2023-05-10T00:57:22;2.53;;;2.35;;
53927;SDS011;39837;47.630;18.822;2023-05-10T01:00:06;2.00;;;1.92;;
53927;SDS011;39837;47.630;18.822;2023-05-10T01:02:52;1.85;;;1.75;;
53927;SDS011;39837;47.630;18.822;2023-05-10T01:05:37;1.98;;;1.83;;
53927;SDS011;39837;47.630;18.822;2023-05-10T01:08:21;3.00;;;2.22;;
53927;SDS011;39837;47.630;18.822;2023-05-10T01:11:05;1.50;;;1.50;;
53927;SDS011;39837;47.630;18.822;2023-05-10T01:13:52;1.92;;;1.83;;
53927;SDS011;39837;47.630;18.822;2023-05-10T01:16:40;2.20;;;2.05;;
53927;SDS011;39837;47.630;18.822;2023-05-10T01:19:25;2.33;;;2.17;;
53927;SDS011;39837;47.630;18.822;2023-05-10T01:32:02;2.03;;;1.92;;
53927;SDS011;39837;47.630;18.822;2023-05-10T01:35:13;2.05;;;1.95;;
53927;SDS011;39837;47.630;18.822;2023-05-10T01:44:11;2.13;;;2.00;;
53927;SDS011;39837;47.630;18.822;2023-05-10T01:47:32;2.60;;;2.40;;
53927;SDS011;39837;47.630;18.822;2023-05-10T01:50:18;1.73;;;1.70;;
53927;SDS011;39837;47.630;18.822;2023-05-10T01:53:14;2.78;;;2.47;;
53927;SDS011;39837;47.630;18.822;2023-05-10T01:56:02;2.95;;;2.22;;
53927;SDS011;39837;47.630;18.822;2023-05-10T01:58:46;2.58;;;2.38;;
53927;SDS011;39837;47.630;18.822;2023-05-10T02:01:31;4.22;;;2.50;;
53927;SDS011;39837;47.630;18.822;2023-05-10T02:04:17;2.70;;;2.50;;
53927;SDS011;39837;47.630;18.822;2023-05-10T02:07:02;2.03;;;1.92;;
53927;SDS011;39837;47.630;18.822;2023-05-10T02:09:47;2.10;;;2.03;;
53927;SDS011;39837;47.630;18.822;2023-05-10T02:12:32;2.05;;;1.95;;
53927;SDS011;39837;47.630;18.822;2023-05-10T02:15:20;2.45;;;2.35;;
53927;SDS011;39837;47.630;18.822;2023-05-10T02:18:06;2.53;;;2.33;;
53927;SDS011;39837;47.630;18.822;2023-05-10T02:20:52;2.65;;;2.03;;
53927;SDS011;39837;47.630;18.822;2023-05-10T02:23:37;2.50;;;2.30;;
53927;SDS011;39837;47.630;18.822;2023-05-10T02:26:22;2.40;;;2.20;;
53927;SDS011;39837;47.630;18.822;2023-05-10T02:29:07;2.85;;;2.45;;
53927;SDS011;39837;47.630;18.822;2023-05-10T02:31:52;2.33;;;2.22;;
53927;SDS011;39837;47.630;18.822;2023-05-10T02:34:38;1.80;;;1.70;;
53927;SDS011;39837;47.630;18.822;2023-05-10T02:37:22;2.17;;;2.03;;
53927;SDS011;39837;47.630;18.822;2023-05-10T02:40:07;3.17;;;2.28;;
53927;SDS011;39837;47.630;18.822;2023-05-10T02:42:52;4.18;;;2.85;;
53927;SDS011;39837;47.630;18.822;2023-05-10T02:45:38;2.72;;;2.05;;
53927;SDS011;39837;47.630;18.822;2023-05-10T02:48:23;4.03;;;2.42;;
53927;SDS011;39837;47.630;18.822;2023-05-10T02:51:07;2.13;;;2.03;;
53927;SDS011;39837;47.630;18.822;2023-05-10T02:53:51;2.60;;;2.40;;
53927;SDS011;39837;47.630;18.822;2023-05-10T02:56:39;2.75;;;2.55;;
53927;SDS011;39837;47.630;18.822;2023-05-10T02:59:26;3.15;;;2.90;;
53927;SDS011;39837;47.630;18.822;2023-05-10T03:02:12;2.67;;;2.47;;
53927;SDS011;39837;47.630;18.822;2023-05-10T03:04:56;2.38;;;2.28;;
53927;SDS011;39837;47.630;18.822;2023-05-10T03:07:40;2.03;;;1.92;;
53927;SDS011;39837;47.630;18.822;2023-05-10T03:10:26;2.92;;;2.72;;
53927;SDS011;39837;47.630;18.822;2023-05-10T03:16:29;2.03;;;1.92;;
53927;SDS011;39837;47.630;18.822;2023-05-10T03:20:03;2.58;;;2.28;;
53927;SDS011;39837;47.630;18.822;2023-05-10T03:22:29;3.97;;;2.63;;
53927;SDS011;39837;47.630;18.822;2023-05-10T03:25:15;3.17;;;2.95;;
53927;SDS011;39837;47.630;18.822;2023-05-10T03:28:00;3.25;;;2.95;;
53927;SDS011;39837;47.630;18.822;2023-05-10T03:30:45;2.45;;;2.35;;
53927;SDS011;39837;47.630;18.822;2023-05-10T03:33:29;2.88;;;2.67;;
53927;SDS011;39837;47.630;18.822;2023-05-10T03:36:13;3.38;;;2.10;;
53927;SDS011;39837;47.630;18.822;2023-05-10T03:38:58;2.40;;;2.30;;
53927;SDS011;39837;47.630;18.822;2023-05-10T03:41:42;2.60;;;2.40;;
53927;SDS011;39837;47.630;18.822;2023-05-10T03:44:26;2.97;;;2.78;;
53927;SDS011;39837;47.630;18.822;2023-05-10T03:47:10;2.30;;;2.20;;
53927;SDS011;39837;47.630;18.822;2023-05-10T03:49:54;3.30;;;3.08;;
53927;SDS011;39837;47.630;18.822;2023-05-10T03:52:37;2.42;;;2.33;;
53927;SDS011;39837;47.630;18.822;2023-05-10T03:55:23;2.42;;;2.28;;
53927;SDS011;39837;47.630;18.822;2023-05-10T03:58:10;3.10;;;2.80;;
53927;SDS011;39837;47.630;18.822;2023-05-10T04:00:54;2.78;;;2.58;;
53927;SDS011;39837;47.630;18.822;2023-05-10T04:03:39;2.97;;;2.78;;
53927;SDS011;39837;47.630;18.822;2023-05-10T04:06:23;18.98;;;2.85;;
53927;SDS011;39837;47.630;18.822;2023-05-10T04:09:07;1.73;;;1.73;;
53927;SDS011;39837;47.630;18.822;2023-05-10T04:11:52;2.85;;;2.65;;
53927;SDS011;39837;47.630;18.822;2023-05-10T04:14:36;2.90;;;2.70;;
53927;SDS011;39837;47.630;18.822;2023-05-10T04:17:20;2.80;;;2.60;;
53927;SDS011;39837;47.630;18.822;2023-05-10T04:20:04;6.60;;;2.55;;
53927;SDS011;39837;47.630;18.822;2023-05-10T04:22:49;3.00;;;2.80;;
53927;SDS011;39837;47.630;18.822;2023-05-10T04:25:34;2.40;;;2.20;;
53927;SDS011;39837;47.630;18.822;2023-05-10T04:28:19;2.97;;;2.67;;
53927;SDS011;39837;47.630;18.822;2023-05-10T04:31:03;2.08;;;1.98;;
53927;SDS011;39837;47.630;18.822;2023-05-10T04:33:48;2.40;;;2.20;;
53927;SDS011;39837;47.630;18.822;2023-05-10T04:36:33;3.42;;;2.38;;
53927;SDS011;39837;47.630;18.822;2023-05-10T04:42:03;4.07;;;2.45;;
53927;SDS011;39837;47.630;18.822;2023-05-10T04:44:49;3.33;;;3.05;;
53927;SDS011;39837;47.630;18.822;2023-05-10T04:47:33;2.13;;;2.03;;
53927;SDS011;39837;47.630;18.822;2023-05-10T04:50:17;2.83;;;2.70;;
53927;SDS011;39837;47.630;18.822;2023-05-10T04:53:01;2.95;;;2.35;;
53927;SDS011;39837;47.630;18.822;2023-05-10T04:55:46;2.50;;;2.40;;
53927;SDS011;39837;47.630;18.822;2023-05-10T04:58:30;2.63;;;2.42;;
53927;SDS011;39837;47.630;18.822;2023-05-10T05:01:14;3.30;;;2.75;;
53927;SDS011;39837;47.630;18.822;2023-05-10T05:03:58;8.07;;;3.58;;
53927;SDS011;39837;47.630;18.822;2023-05-10T05:06:42;2.60;;;2.42;;
53927;SDS011;39837;47.630;18.822;2023-05-10T05:09:27;3.25;;;2.78;;
53927;SDS011;39837;47.630;18.822;2023-05-10T05:12:10;2.53;;;2.42;;
53927;SDS011;39837;47.630;18.822;2023-05-10T05:14:57;2.40;;;2.30;;
53927;SDS011;39837;47.630;18.822;2023-05-10T05:17:41;3.63;;;2.78;;
53927;SDS011;39837;47.630;18.822;2023-05-10T05:20:25;4.55;;;2.47;;
53927;SDS011;39837;47.630;18.822;2023-05-10T05:23:10;2.20;;;2.10;;
53927;SDS011;39837;47.630;18.822;2023-05-10T05:25:54;2.67;;;2.47;;
53927;SDS011;39837;47.630;18.822;2023-05-10T05:28:38;1.92;;;1.92;;
53927;SDS011;39837;47.630;18.822;2023-05-10T05:31:23;2.45;;;2.35;;
53927;SDS011;39837;47.630;18.822;2023-05-10T05:34:07;2.55;;;2.35;;
53927;SDS011;39837;47.630;18.822;2023-05-10T05:36:51;2.80;;;2.67;;
53927;SDS011;39837;47.630;18.822;2023-05-10T05:39:35;2.10;;;2.00;;
53927;SDS011;39837;47.630;18.822;2023-05-10T05:42:19;2.03;;;1.92;;
53927;SDS011;39837;47.630;18.822;2023-05-10T05:45:03;2.10;;;1.90;;
53927;SDS011;39837;47.630;18.822;2023-05-10T05:47:47;2.60;;;2.50;;
53927;SDS011;39837;47.630;18.822;2023-05-10T05:50:31;2.75;;;2.10;;
53927;SDS011;39837;47.630;18.822;2023-05-10T05:53:16;2.45;;;2.35;;
53927;SDS011;39837;47.630;18.822;2023-05-10T05:56:00;1.95;;;1.92;;
53927;SDS011;39837;47.630;18.822;2023-05-10T05:58:44;2.35;;;2.25;;
53927;SDS011;39837;47.630;18.822;2023-05-10T06:01:28;2.70;;;2.60;;
53927;SDS011;39837;47.630;18.822;2023-05-10T06:04:12;1.70;;;1.60;;
53927;SDS011;39837;47.630;18.822;2023-05-10T06:06:56;2.35;;;2.25;;
53927;SDS011;39837;47.630;18.822;2023-05-10T06:09:40;2.42;;;2.30;;
53927;SDS011;39837;47.630;18.822;2023-05-10T06:12:24;2.95;;;2.65;;
53927;SDS011;39837;47.630;18.822;2023-05-10T06:15:09;2.42;;;2.30;;
53927;SDS011;39837;47.630;18.822;2023-05-10T06:17:53;1.90;;;1.90;;
53927;SDS011;39837;47.630;18.822;2023-05-10T06:20:37;2.40;;;2.30;;
53927;SDS011;39837;47.630;18.822;2023-05-10T06:23:21;1.60;;;1.58;;
53927;SDS011;39837;47.630;18.822;2023-05-10T06:26:06;3.35;;;3.13;;
53927;SDS011;39837;47.630;18.822;2023-05-10T06:28:50;4.78;;;2.10;;
53927;SDS011;39837;47.630;18.822;2023-05-10T06:31:34;5.72;;;1.92;;
53927;SDS011;39837;47.630;18.822;2023-05-10T06:34:18;1.95;;;1.85;;
53927;SDS011;39837;47.630;18.822;2023-05-10T06:37:02;1.83;;;1.83;;
53927;SDS011;39837;47.630;18.822;2023-05-10T06:39:46;1.40;;;1.30;;
53927;SDS011;39837;47.630;18.822;2023-05-10T06:42:31;1.17;;;1.17;;
53927;SDS011;39837;47.630;18.822;2023-05-10T06:45:15;12.10;;;1.52;;
53927;SDS011;39837;47.630;18.822;2023-05-10T06:48:00;1.42;;;1.42;;
53927;SDS011;39837;47.630;18.822;2023-05-10T06:50:44;0.85;;;0.85;;
53927;SDS011;39837;47.630;18.822;2023-05-10T06:53:28;1.50;;;1.40;;
53927;SDS011;39837;47.630;18.822;2023-05-10T06:56:13;1.05;;;1.05;;
53927;SDS011;39837;47.630;18.822;2023-05-10T06:58:57;3.30;;;1.40;;
53927;SDS011;39837;47.630;18.822;2023-05-10T07:01:41;1.48;;;1.40;;
53927;SDS011;39837;47.630;18.822;2023-05-10T07:04:25;1.13;;;1.10;;
53927;SDS011;39837;47.630;18.822;2023-05-10T07:07:10;1.13;;;1.10;;
53927;SDS011;39837;47.630;18.822;2023-05-10T07:09:54;1.50;;;1.40;;
53927;SDS011;39837;47.630;18.822;2023-05-10T07:12:40;5.60;;;1.63;;
53927;SDS011;39837;47.630;18.822;2023-05-10T07:15:24;1.60;;;1.60;;
53927;SDS011;39837;47.630;18.822;2023-05-10T07:18:08;1.35;;;1.25;;
53927;SDS011;39837;47.630;18.822;2023-05-10T07:20:52;1.85;;;1.33;;
53927;SDS011;39837;47.630;18.822;2023-05-10T07:23:36;1.42;;;1.40;;
53927;SDS011;39837;47.630;18.822;2023-05-10T07:26:19;0.95;;;0.95;;
53927;SDS011;39837;47.630;18.822;2023-05-10T07:29:04;1.20;;;1.20;;
53927;SDS011;39837;47.630;18.822;2023-05-10T07:31:48;1.48;;;1.38;;
53927;SDS011;39837;47.630;18.822;2023-05-10T07:34:32;1.40;;;1.30;;
53927;SDS011;39837;47.630;18.822;2023-05-10T07:37:17;2.90;;;2.60;;
53927;SDS011;39837;47.630;18.822;2023-05-10T07:40:01;1.00;;;1.00;;
53927;SDS011;39837;47.630;18.822;2023-05-10T07:42:45;8.45;;;1.20;;
53927;SDS011;39837;47.630;18.822;2023-05-10T07:45:29;1.58;;;1.48;;
53927;SDS011;39837;47.630;18.822;2023-05-10T07:48:13;3.25;;;1.10;;
53927;SDS011;39837;47.630;18.822;2023-05-10T07:50:57;0.82;;;0.82;;
53927;SDS011;39837;47.630;18.822;2023-05-10T07:53:41;0.93;;;0.93;;
53927;SDS011;39837;47.630;18.822;2023-05-10T07:56:28;1.40;;;1.30;;
53927;SDS011;39837;47.630;18.822;2023-05-10T07:59:16;0.95;;;0.95;;
53927;SDS011;39837;47.630;18.822;2023-05-10T08:02:01;1.23;;;1.23;;
53927;SDS011;39837;47.630;18.822;2023-05-10T08:04:45;1.53;;;1.43;;
53927;SDS011;39837;47.630;18.822;2023-05-10T08:07:29;1.63;;;1.53;;
53927;SDS011;39837;47.630;18.822;2023-05-10T08:10:14;1.83;;;1.73;;
53927;SDS011;39837;47.630;18.822;2023-05-10T08:12:57;1.52;;;1.42;;
53927;SDS011;39837;47.630;18.822;2023-05-10T08:15:42;1.03;;;1.03;;
53927;SDS011;39837;47.630;18.822;2023-05-10T08:18:26;0.93;;;0.93;;
53927;SDS011;39837;47.630;18.822;2023-05-10T08:21:10;1.20;;;1.20;;
53927;SDS011;39837;47.630;18.822;2023-05-10T08:23:55;2.47;;;1.20;;
53927;SDS011;39837;47.630;18.822;2023-05-10T08:26:39;1.40;;;1.40;;
53927;SDS011;39837;47.630;18.822;2023-05-10T08:29:23;1.35;;;1.35;;
53927;SDS011;39837;47.630;18.822;2023-05-10T08:32:08;1.10;;;1.10;;
53927;SDS011;39837;47.630;18.822;2023-05-10T08:34:52;1.10;;;1.10;;
53927;SDS011;39837;47.630;18.822;2023-05-10T08:37:36;2.50;;;1.40;;
53927;SDS011;39837;47.630;18.822;2023-05-10T08:40:20;1.88;;;1.77;;
53927;SDS011;39837;47.630;18.822;2023-05-10T08:43:05;1.60;;;1.60;;
53927;SDS011;39837;47.630;18.822;2023-05-10T08:45:51;14.23;;;1.40;;
53927;SDS011;39837;47.630;18.822;2023-05-10T08:48:35;1.77;;;1.67;;
53927;SDS011;39837;47.630;18.822;2023-05-10T08:51:24;4.90;;;1.77;;
53927;SDS011;39837;47.630;18.822;2023-05-10T08:54:10;1.48;;;1.38;;
53927;SDS011;39837;47.630;18.822;2023-05-10T08:56:54;1.77;;;1.67;;
53927;SDS011;39837;47.630;18.822;2023-05-10T08:59:38;3.60;;;1.23;;
53927;SDS011;39837;47.630;18.822;2023-05-10T09:02:23;1.02;;;1.02;;
53927;SDS011;39837;47.630;18.822;2023-05-10T09:05:08;1.33;;;1.30;;
53927;SDS011;39837;47.630;18.822;2023-05-10T09:07:53;1.35;;;1.35;;
53927;SDS011;39837;47.630;18.822;2023-05-10T09:10:38;1.10;;;1.10;;
53927;SDS011;39837;47.630;18.822;2023-05-10T09:13:22;1.42;;;1.40;;
53927;SDS011;39837;47.630;18.822;2023-05-10T09:16:07;1.27;;;1.27;;
53927;SDS011;39837;47.630;18.822;2023-05-10T09:18:51;0.98;;;0.95;;
53927;SDS011;39837;47.630;18.822;2023-05-10T09:21:35;1.52;;;1.40;;
53927;SDS011;39837;47.630;18.822;2023-05-10T09:24:26;1.13;;;1.13;;
53927;SDS011;39837;47.630;18.822;2023-05-10T09:27:10;0.85;;;0.85;;
53927;SDS011;39837;47.630;18.822;2023-05-10T09:29:54;1.40;;;1.27;;
53927;SDS011;39837;47.630;18.822;2023-05-10T09:32:40;2.47;;;1.15;;
53927;SDS011;39837;47.630;18.822;2023-05-10T09:35:29;1.42;;;1.33;;
53927;SDS011;39837;47.630;18.822;2023-05-10T09:38:14;0.80;;;0.80;;
53927;SDS011;39837;47.630;18.822;2023-05-10T09:40:58;1.58;;;1.30;;
53927;SDS011;39837;47.630;18.822;2023-05-10T09:43:46;1.35;;;1.35;;
53927;SDS011;39837;47.630;18.822;2023-05-10T09:46:34;1.23;;;1.23;;
53927;SDS011;39837;47.630;18.822;2023-05-10T09:49:20;1.45;;;1.45;;
53927;SDS011;39837;47.630;18.822;2023-05-10T09:54:53;2.17;;;1.80;;
53927;SDS011;39837;47.630;18.822;2023-05-10T09:57:38;1.50;;;1.40;;
53927;SDS011;39837;47.630;18.822;2023-05-10T10:00:22;1.52;;;1.42;;
53927;SDS011;39837;47.630;18.822;2023-05-10T10:03:11;1.67;;;1.65;;
53927;SDS011;39837;47.630;18.822;2023-05-10T10:05:56;1.48;;;1.40;;
53927;SDS011;39837;47.630;18.822;2023-05-10T10:08:40;4.40;;;1.58;;
53927;SDS011;39837;47.630;18.822;2023-05-10T10:11:24;1.50;;;1.38;;
53927;SDS011;39837;47.630;18.822;2023-05-10T10:14:08;1.35;;;1.25;;
53927;SDS011;39837;47.630;18.822;2023-05-10T10:16:52;1.15;;;1.15;;
53927;SDS011;39837;47.630;18.822;2023-05-10T10:19:36;1.50;;;1.50;;
53927;SDS011;39837;47.630;18.822;2023-05-10T10:22:20;1.80;;;1.70;;
53927;SDS011;39837;47.630;18.822;2023-05-10T10:25:05;1.67;;;1.60;;
53927;SDS011;39837;47.630;18.822;2023-05-10T10:30:39;2.17;;;1.27;;
53927;SDS011;39837;47.630;18.822;2023-05-10T10:33:50;1.08;;;1.08;;
53927;SDS011;39837;47.630;18.822;2023-05-10T10:36:44;1.83;;;1.73;;
53927;SDS011;39837;47.630;18.822;2023-05-10T10:39:29;1.40;;;1.40;;
53927;SDS011;39837;47.630;18.822;2023-05-10T10:42:14;1.67;;;1.65;;
53927;SDS011;39837;47.630;18.822;2023-05-10T10:45:13;2.65;;;1.58;;
53927;SDS011;39837;47.630;18.822;2023-05-10T10:51:06;1.08;;;1.08;;
53927;SDS011;39837;47.630;18.822;2023-05-10T10:53:50;2.88;;;1.42;;
53927;SDS011;39837;47.630;18.822;2023-05-10T10:56:35;1.17;;;1.17;;
53927;SDS011;39837;47.630;18.822;2023-05-10T10:59:26;1.02;;;1.02;;
53927;SDS011;39837;47.630;18.822;2023-05-10T11:02:10;1.80;;;1.70;;
53927;SDS011;39837;47.630;18.822;2023-05-10T11:08:28;1.52;;;1.52;;
53927;SDS011;39837;47.630;18.822;2023-05-10T11:11:14;1.08;;;1.08;;
53927;SDS011;39837;47.630;18.822;2023-05-10T11:14:02;1.20;;;1.20;;
53927;SDS011;39837;47.630;18.822;2023-05-10T11:16:47;9.85;;;1.42;;
53927;SDS011;39837;47.630;18.822;2023-05-10T11:19:32;1.88;;;1.67;;
53927;SDS011;39837;47.630;18.822;2023-05-10T11:22:16;1.30;;;1.15;;
53927;SDS011;39837;47.630;18.822;2023-05-10T11:25:00;1.45;;;1.45;;
53927;SDS011;39837;47.630;18.822;2023-05-10T11:27:45;1.00;;;1.00;;
53927;SDS011;39837;47.630;18.822;2023-05-10T11:30:30;1.35;;;1.35;;
53927;SDS011;39837;47.630;18.822;2023-05-10T11:33:15;1.45;;;1.40;;
53927;SDS011;39837;47.630;18.822;2023-05-10T11:36:01;2.08;;;1.40;;
53927;SDS011;39837;47.630;18.822;2023-05-10T11:38:45;1.98;;;1.20;;
53927;SDS011;39837;47.630;18.822;2023-05-10T11:41:30;1.00;;;1.00;;
53927;SDS011;39837;47.630;18.822;2023-05-10T11:44:15;2.55;;;0.98;;
53927;SDS011;39837;47.630;18.822;2023-05-10T11:47:02;1.17;;;1.10;;
53927;SDS011;39837;47.630;18.822;2023-05-10T11:49:47;1.00;;;1.00;;
53927;SDS011;39837;47.630;18.822;2023-05-10T11:52:35;1.00;;;1.00;;
53927;SDS011;39837;47.630;18.822;2023-05-10T11:55:21;2.10;;;1.95;;
53927;SDS011;39837;47.630;18.822;2023-05-10T11:58:05;3.50;;;1.60;;
53927;SDS011;39837;47.630;18.822;2023-05-10T12:00:49;0.95;;;0.95;;
53927;SDS011;39837;47.630;18.822;2023-05-10T12:03:33;1.15;;;1.13;;
53927;SDS011;39837;47.630;18.822;2023-05-10T12:06:18;0.80;;;0.80;;
53927;SDS011;39837;47.630;18.822;2023-05-10T12:09:05;2.90;;;1.17;;
53927;SDS011;39837;47.630;18.822;2023-05-10T12:11:54;0.82;;;0.82;;
53927;SDS011;39837;47.630;18.822;2023-05-10T12:14:40;1.42;;;1.17;;
53927;SDS011;39837;47.630;18.822;2023-05-10T12:17:27;0.93;;;0.93;;
53927;SDS011;39837;47.630;18.822;2023-05-10T12:20:18;1.33;;;1.33;;
53927;SDS011;39837;47.630;18.822;2023-05-10T12:23:03;1.45;;;1.45;;
53927;SDS011;39837;47.630;18.822;2023-05-10T12:25:49;1.77;;;1.67;;
53927;SDS011;39837;47.630;18.822;2023-05-10T12:28:32;1.08;;;1.08;;
53927;SDS011;39837;47.630;18.822;2023-05-10T12:31:17;1.10;;;1.10;;
53927;SDS011;39837;47.630;18.822;2023-05-10T12:34:02;1.17;;;1.17;;
53927;SDS011;39837;47.630;18.822;2023-05-10T12:36:46;1.38;;;1.27;;
53927;SDS011;39837;47.630;18.822;2023-05-10T12:39:41;1.25;;;1.17;;
53927;SDS011;39837;47.630;18.822;2023-05-10T12:42:26;1.23;;;1.23;;
53927;SDS011;39837;47.630;18.822;2023-05-10T12:45:10;3.80;;;1.05;;
53927;SDS011;39837;47.630;18.822;2023-05-10T12:47:54;1.50;;;1.40;;
53927;SDS011;39837;47.630;18.822;2023-05-10T12:50:42;1.08;;;1.08;;
53927;SDS011;39837;47.630;18.822;2023-05-10T12:53:26;1.27;;;1.27;;
53927;SDS011;39837;47.630;18.822;2023-05-10T12:56:11;1.08;;;1.08;;
53927;SDS011;39837;47.630;18.822;2023-05-10T12:58:55;1.10;;;1.10;;
53927;SDS011;39837;47.630;18.822;2023-05-10T13:01:38;0.98;;;0.95;;
53927;SDS011;39837;47.630;18.822;2023-05-10T13:04:23;3.63;;;1.65;;
53927;SDS011;39837;47.630;18.822;2023-05-10T13:07:07;3.80;;;1.40;;
53927;SDS011;39837;47.630;18.822;2023-05-10T13:09:51;1.60;;;1.10;;
53927;SDS011;39837;47.630;18.822;2023-05-10T13:12:35;1.00;;;1.00;;
53927;SDS011;39837;47.630;18.822;2023-05-10T13:15:20;1.80;;;1.00;;
53927;SDS011;39837;47.630;18.822;2023-05-10T13:18:04;0.95;;;0.95;;
53927;SDS011;39837;47.630;18.822;2023-05-10T13:20:48;2.13;;;1.25;;
53927;SDS011;39837;47.630;18.822;2023-05-10T13:23:33;2.35;;;1.33;;
53927;SDS011;39837;47.630;18.822;2023-05-10T13:26:18;0.90;;;0.90;;
53927;SDS011;39837;47.630;18.822;2023-05-10T13:29:02;0.80;;;0.80;;
53927;SDS011;39837;47.630;18.822;2023-05-10T13:31:47;1.38;;;1.25;;
53927;SDS011;39837;47.630;18.822;2023-05-10T13:34:30;1.15;;;1.15;;
53927;SDS011;39837;47.630;18.822;2023-05-10T13:37:15;1.25;;;1.17;;
53927;SDS011;39837;47.630;18.822;2023-05-10T13:39:59;0.88;;;0.88;;
53927;SDS011;39837;47.630;18.822;2023-05-10T13:42:43;0.93;;;0.93;;
53927;SDS011;39837;47.630;18.822;2023-05-10T13:45:27;5.45;;;1.10;;
53927;SDS011;39837;47.630;18.822;2023-05-10T13:48:11;0.82;;;0.82;;
53927;SDS011;39837;47.630;18.822;2023-05-10T13:50:55;1.05;;;1.05;;
53927;SDS011;39837;47.630;18.822;2023-05-10T13:53:39;0.98;;;0.98;;
53927;SDS011;39837;47.630;18.822;2023-05-10T13:56:23;1.33;;;1.20;;
53927;SDS011;39837;47.630;18.822;2023-05-10T13:59:08;1.65;;;1.15;;
53927;SDS011;39837;47.630;18.822;2023-05-10T14:01:52;6.38;;;1.13;;
53927;SDS011;39837;47.630;18.822;2023-05-10T14:04:36;0.93;;;0.93;;
53927;SDS011;39837;47.630;18.822;2023-05-10T14:07:20;1.05;;;1.05;;
53927;SDS011;39837;47.630;18.822;2023-05-10T14:10:04;1.05;;;1.05;;
53927;SDS011;39837;47.630;18.822;2023-05-10T14:12:49;1.08;;;1.08;;
53927;SDS011;39837;47.630;18.822;2023-05-10T14:15:33;0.83;;;0.83;;
53927;SDS011;39837;47.630;18.822;2023-05-10T14:18:17;1.60;;;1.35;;
53927;SDS011;39837;47.630;18.822;2023-05-10T14:21:01;0.98;;;0.98;;
53927;SDS011;39837;47.630;18.822;2023-05-10T14:23:46;1.27;;;1.20;;
53927;SDS011;39837;47.630;18.822;2023-05-10T14:26:30;1.13;;;0.95;;
53927;SDS011;39837;47.630;18.822;2023-05-10T14:29:14;1.80;;;0.95;;
53927;SDS011;39837;47.630;18.822;2023-05-10T14:31:58;6.68;;;1.25;;
53927;SDS011;39837;47.630;18.822;2023-05-10T14:34:42;1.83;;;1.55;;
53927;SDS011;39837;47.630;18.822;2023-05-10T14:37:26;1.35;;;1.25;;
53927;SDS011;39837;47.630;18.822;2023-05-10T14:40:10;1.00;;;1.00;;
53927;SDS011;39837;47.630;18.822;2023-05-10T14:42:55;0.98;;;0.88;;
53927;SDS011;39837;47.630;18.822;2023-05-10T14:45:39;0.98;;;0.98;;
53927;SDS011;39837;47.630;18.822;2023-05-10T14:48:23;8.30;;;0.95;;
53927;SDS011;39837;47.630;18.822;2023-05-10T14:51:07;1.27;;;1.27;;
53927;SDS011;39837;47.630;18.822;2023-05-10T14:53:51;1.77;;;1.67;;
53927;SDS011;39837;47.630;18.822;2023-05-10T14:56:35;0.90;;;0.90;;
53927;SDS011;39837;47.630;18.822;2023-05-10T14:59:21;0.77;;;0.77;;
53927;SDS011;39837;47.630;18.822;2023-05-10T15:02:05;1.00;;;1.00;;
53927;SDS011;39837;47.630;18.822;2023-05-10T15:04:49;1.00;;;1.00;;
53927;SDS011;39837;47.630;18.822;2023-05-10T15:07:33;7.85;;;1.10;;
53927;SDS011;39837;47.630;18.822;2023-05-10T15:10:17;0.93;;;0.90;;
53927;SDS011;39837;47.630;18.822;2023-05-10T15:13:03;0.75;;;0.75;;
53927;SDS011;39837;47.630;18.822;2023-05-10T15:15:47;1.05;;;1.05;;
53927;SDS011;39837;47.630;18.822;2023-05-10T15:18:31;1.30;;;1.10;;
53927;SDS011;39837;47.630;18.822;2023-05-10T15:21:15;0.75;;;0.75;;
53927;SDS011;39837;47.630;18.822;2023-05-10T15:23:59;0.90;;;0.90;;
53927;SDS011;39837;47.630;18.822;2023-05-10T15:26:43;1.30;;;1.25;;
53927;SDS011;39837;47.630;18.822;2023-05-10T15:29:27;1.25;;;1.20;;
53927;SDS011;39837;47.630;18.822;2023-05-10T15:32:13;1.20;;;1.20;;
53927;SDS011;39837;47.630;18.822;2023-05-10T15:34:57;0.70;;;0.70;;
53927;SDS011;39837;47.630;18.822;2023-05-10T15:37:41;4.27;;;1.40;;
53927;SDS011;39837;47.630;18.822;2023-05-10T15:40:26;1.45;;;1.35;;
53927;SDS011;39837;47.630;18.822;2023-05-10T15:43:09;1.65;;;1.63;;
53927;SDS011;39837;47.630;18.822;2023-05-10T15:45:53;1.02;;;1.02;;
53927;SDS011;39837;47.630;18.822;2023-05-10T15:48:37;1.65;;;1.55;;
53927;SDS011;39837;47.630;18.822;2023-05-10T15:51:22;1.20;;;1.20;;
53927;SDS011;39837;47.630;18.822;2023-05-10T15:54:06;0.80;;;0.80;;
53927;SDS011;39837;47.630;18.822;2023-05-10T15:56:50;4.82;;;1.27;;
53927;SDS011;39837;47.630;18.822;2023-05-10T15:59:34;1.20;;;1.10;;
53927;SDS011;39837;47.630;18.822;2023-05-10T16:02:18;1.17;;;1.17;;
53927;SDS011;39837;47.630;18.822;2023-05-10T16:05:02;5.88;;;1.85;;
53927;SDS011;39837;47.630;18.822;2023-05-10T16:07:47;0.77;;;0.77;;
53927;SDS011;39837;47.630;18.822;2023-05-10T16:10:31;0.90;;;0.90;;
53927;SDS011;39837;47.630;18.822;2023-05-10T16:13:15;1.50;;;0.75;;
53927;SDS011;39837;47.630;18.822;2023-05-10T16:16:00;0.80;;;0.80;;
53927;SDS011;39837;47.630;18.822;2023-05-10T16:18:44;0.82;;;0.82;;
53927;SDS011;39837;47.630;18.822;2023-05-10T16:21:29;5.18;;;1.10;;
53927;SDS011;39837;47.630;18.822;2023-05-10T16:24:15;1.77;;;1.40;;
53927;SDS011;39837;47.630;18.822;2023-05-10T16:26:59;1.35;;;1.25;;
53927;SDS011;39837;47.630;18.822;2023-05-10T16:29:43;0.85;;;0.85;;
53927;SDS011;39837;47.630;18.822;2023-05-10T16:32:27;1.00;;;1.00;;
53927;SDS011;39837;47.630;18.822;2023-05-10T16:35:11;1.02;;;1.02;;
53927;SDS011;39837;47.630;18.822;2023-05-10T16:37:55;1.13;;;1.10;;
53927;SDS011;39837;47.630;18.822;2023-05-10T16:40:39;1.30;;;1.05;;
53927;SDS011;39837;47.630;18.822;2023-05-10T16:43:24;0.98;;;0.98;;
53927;SDS011;39837;47.630;18.822;2023-05-10T16:46:08;1.38;;;1.38;;
53927;SDS011;39837;47.630;18.822;2023-05-10T16:48:53;1.15;;;1.15;;
53927;SDS011;39837;47.630;18.822;2023-05-10T16:51:38;2.05;;;1.90;;
53927;SDS011;39837;47.630;18.822;2023-05-10T16:54:22;1.13;;;1.10;;